sensor_id;sensor_type;location;lat;lon;timestamp;pressure;altitude;pressure_sealevel;temperature;humidity
27146;BME280;17980;51.744;7.190;2022-08-26T00:04:30;100818.50;;;26.36;71.01
27146;BME280;17980;51.744;7.190;2022-08-26T00:06:57;100814.21;;;26.31;70.69
27146;BME280;17980;51.744;7.190;2022-08-26T00:09:25;100821.97;;;26.26;70.83
27146;BME280;17980;51.744;7.190;2022-08-26T00:14:32;100824.72;;;26.23;71.16
27146;BME280;17980;51.744;7.190;2022-08-26T00:19:36;100827.19;;;26.20;71.35
27146;BME280;17980;51.744;7.190;2022-08-26T00:22:04;100831.05;;;26.02;71.93
27146;BME280;17980;51.744;7.190;2022-08-26T00:24:32;100831.42;;;25.93;72.20
27146;BME280;17980;51.744;7.190;2022-08-26T00:26:59;100830.41;;;26.00;72.08
27146;BME280;17980;51.744;7.190;2022-08-26T00:29:26;100834.16;;;25.91;72.10
27146;BME280;17980;51.744;7.190;2022-08-26T00:31:54;100854.23;;;25.47;73.71
27146;BME280;17980;51.744;7.190;2022-08-26T00:34:22;100855.05;;;25.21;74.81
27146;BME280;17980;51.744;7.190;2022-08-26T00:39:26;100853.34;;;25.44;73.78
27146;BME280;17980;51.744;7.190;2022-08-26T00:41:53;100846.31;;;25.56;73.44
27146;BME280;17980;51.744;7.190;2022-08-26T00:44:23;100835.42;;;25.69;72.66
27146;BME280;17980;51.744;7.190;2022-08-26T00:46:55;100846.09;;;25.72;72.76
27146;BME280;17980;51.744;7.190;2022-08-26T00:52:06;100851.23;;;25.77;72.92
27146;BME280;17980;51.744;7.190;2022-08-26T00:57:16;100845.20;;;25.83;72.33
27146;BME280;17980;51.744;7.190;2022-08-26T00:59:46;100854.37;;;25.81;72.22
27146;BME280;17980;51.744;7.190;2022-08-26T01:02:17;100848.53;;;25.68;72.74
27146;BME280;17980;51.744;7.190;2022-08-26T01:04:48;100856.83;;;25.63;72.85
27146;BME280;17980;51.744;7.190;2022-08-26T01:07:15;100847.83;;;25.75;72.60
27146;BME280;17980;51.744;7.190;2022-08-26T01:12:20;100856.59;;;25.53;73.59
27146;BME280;17980;51.744;7.190;2022-08-26T01:14:50;100845.87;;;25.61;73.44
27146;BME280;17980;51.744;7.190;2022-08-26T01:17:18;100848.78;;;25.67;73.46
27146;BME280;17980;51.744;7.190;2022-08-26T01:19:48;100849.27;;;25.49;74.23
27146;BME280;17980;51.744;7.190;2022-08-26T01:24:55;100849.09;;;25.68;74.43
27146;BME280;17980;51.744;7.190;2022-08-26T01:27:26;100849.80;;;25.49;74.61
27146;BME280;17980;51.744;7.190;2022-08-26T01:29:56;100857.59;;;25.47;74.71
27146;BME280;17980;51.744;7.190;2022-08-26T01:32:25;100849.34;;;25.40;75.14
27146;BME280;17980;51.744;7.190;2022-08-26T01:34:53;100843.37;;;25.48;74.77
27146;BME280;17980;51.744;7.190;2022-08-26T01:37:25;100841.45;;;25.37;74.28
27146;BME280;17980;51.744;7.190;2022-08-26T01:42:39;100839.38;;;25.44;74.06
27146;BME280;17980;51.744;7.190;2022-08-26T01:47:47;100844.78;;;25.24;75.62
27146;BME280;17980;51.744;7.190;2022-08-26T01:50:19;100845.89;;;25.23;75.75
27146;BME280;17980;51.744;7.190;2022-08-26T01:52:48;100848.75;;;25.14;76.62
27146;BME280;17980;51.744;7.190;2022-08-26T01:57:55;100859.61;;;25.25;76.69
27146;BME280;17980;51.744;7.190;2022-08-26T02:00:25;100867.08;;;25.10;77.52
27146;BME280;17980;51.744;7.190;2022-08-26T02:02:55;100872.92;;;24.97;78.55
27146;BME280;17980;51.744;7.190;2022-08-26T02:08:23;100870.36;;;25.07;79.87
27146;BME280;17980;51.744;7.190;2022-08-26T02:13:37;100875.45;;;24.86;80.85
27146;BME280;17980;51.744;7.190;2022-08-26T02:16:06;100872.13;;;24.99;80.93
27146;BME280;17980;51.744;7.190;2022-08-26T02:18:37;100880.55;;;25.13;80.24
27146;BME280;17980;51.744;7.190;2022-08-26T02:21:07;100883.03;;;25.24;80.02
27146;BME280;17980;51.744;7.190;2022-08-26T02:23:35;100878.86;;;25.00;81.06
27146;BME280;17980;51.744;7.190;2022-08-26T02:26:05;100885.22;;;24.86;82.60
27146;BME280;17980;51.744;7.190;2022-08-26T02:31:13;100890.98;;;25.06;82.50
27146;BME280;17980;51.744;7.190;2022-08-26T02:33:41;100882.45;;;24.98;83.36
27146;BME280;17980;51.744;7.190;2022-08-26T02:38:45;100887.36;;;25.05;83.68
27146;BME280;17980;51.744;7.190;2022-08-26T02:41:13;100890.09;;;25.03;84.87
27146;BME280;17980;51.744;7.190;2022-08-26T02:43:40;100894.87;;;24.93;85.94
27146;BME280;17980;51.744;7.190;2022-08-26T02:48:44;100884.34;;;24.95;86.25
27146;BME280;17980;51.744;7.190;2022-08-26T02:51:12;100887.73;;;24.85;87.23
27146;BME280;17980;51.744;7.190;2022-08-26T02:53:39;100886.69;;;24.77;88.08
27146;BME280;17980;51.744;7.190;2022-08-26T02:56:08;100892.50;;;24.87;87.78
27146;BME280;17980;51.744;7.190;2022-08-26T02:58:35;100894.11;;;24.95;87.54
27146;BME280;17980;51.744;7.190;2022-08-26T03:01:03;100896.47;;;25.01;87.58
27146;BME280;17980;51.744;7.190;2022-08-26T03:06:07;100892.64;;;24.92;90.10
27146;BME280;17980;51.744;7.190;2022-08-26T03:08:34;100894.56;;;24.80;89.92
27146;BME280;17980;51.744;7.190;2022-08-26T03:13:39;100894.32;;;24.70;92.01
27146;BME280;17980;51.744;7.190;2022-08-26T03:16:07;100891.76;;;24.47;93.72
27146;BME280;17980;51.744;7.190;2022-08-26T03:18:34;100881.03;;;24.53;93.72
27146;BME280;17980;51.744;7.190;2022-08-26T03:21:05;100888.77;;;24.61;93.18
27146;BME280;17980;51.744;7.190;2022-08-26T03:23:36;100889.64;;;24.61;93.14
27146;BME280;17980;51.744;7.190;2022-08-26T03:26:05;100883.64;;;24.46;94.60
27146;BME280;17980;51.744;7.190;2022-08-26T03:28:32;100892.25;;;24.14;97.11
27146;BME280;17980;51.744;7.190;2022-08-26T03:31:00;100887.75;;;24.43;95.97
27146;BME280;17980;51.744;7.190;2022-08-26T03:36:06;100894.40;;;24.21;97.74
27146;BME280;17980;51.744;7.190;2022-08-26T03:38:33;100898.47;;;24.16;98.31
27146;BME280;17980;51.744;7.190;2022-08-26T03:43:39;100899.05;;;24.48;96.79
27146;BME280;17980;51.744;7.190;2022-08-26T03:46:11;100905.20;;;24.38;97.31
27146;BME280;17980;51.744;7.190;2022-08-26T03:48:39;100907.66;;;24.16;98.79
27146;BME280;17980;51.744;7.190;2022-08-26T03:51:12;100903.09;;;24.13;100.00
27146;BME280;17980;51.744;7.190;2022-08-26T03:53:39;100905.94;;;24.24;98.79
27146;BME280;17980;51.744;7.190;2022-08-26T03:56:06;100905.24;;;24.41;98.78
27146;BME280;17980;51.744;7.190;2022-08-26T04:01:12;100913.61;;;24.71;98.13
27146;BME280;17980;51.744;7.190;2022-08-26T04:03:40;100910.68;;;24.66;98.23
27146;BME280;17980;51.744;7.190;2022-08-26T04:09:07;100910.75;;;24.69;99.55
27146;BME280;17980;51.744;7.190;2022-08-26T04:11:35;100911.64;;;24.30;100.00
27146;BME280;17980;51.744;7.190;2022-08-26T04:14:07;100913.44;;;24.24;100.00
27146;BME280;17980;51.744;7.190;2022-08-26T04:19:13;100917.11;;;24.46;100.00
27146;BME280;17980;51.744;7.190;2022-08-26T04:21:41;100909.74;;;24.42;100.00
27146;BME280;17980;51.744;7.190;2022-08-26T04:24:11;100907.63;;;24.47;99.86
27146;BME280;17980;51.744;7.190;2022-08-26T04:29:18;100912.75;;;24.29;100.00
27146;BME280;17980;51.744;7.190;2022-08-26T04:31:46;100913.27;;;24.28;100.00
27146;BME280;17980;51.744;7.190;2022-08-26T04:34:16;100911.70;;;24.41;100.00
27146;BME280;17980;51.744;7.190;2022-08-26T04:39:22;100915.37;;;24.33;100.00
27146;BME280;17980;51.744;7.190;2022-08-26T04:41:50;100919.72;;;24.29;100.00
27146;BME280;17980;51.744;7.190;2022-08-26T04:44:19;100920.09;;;24.63;100.00
27146;BME280;17980;51.744;7.190;2022-08-26T04:49:24;100925.30;;;24.29;100.00
27146;BME280;17980;51.744;7.190;2022-08-26T04:51:51;100924.23;;;24.20;100.00
27146;BME280;17980;51.744;7.190;2022-08-26T04:54:19;100926.46;;;24.21;100.00
27146;BME280;17980;51.744;7.190;2022-08-26T04:56:48;100929.42;;;24.47;100.00
27146;BME280;17980;51.744;7.190;2022-08-26T04:59:16;100927.45;;;24.27;100.00
27146;BME280;17980;51.744;7.190;2022-08-26T05:04:22;100932.46;;;24.36;100.00
27146;BME280;17980;51.744;7.190;2022-08-26T05:06:49;100939.51;;;24.39;100.00
27146;BME280;17980;51.744;7.190;2022-08-26T05:09:17;100937.78;;;24.47;100.00
27146;BME280;17980;51.744;7.190;2022-08-26T05:14:22;100941.34;;;24.45;100.00
27146;BME280;17980;51.744;7.190;2022-08-26T05:16:50;100946.96;;;24.36;100.00
27146;BME280;17980;51.744;7.190;2022-08-26T05:19:17;100950.47;;;24.62;100.00
27146;BME280;17980;51.744;7.190;2022-08-26T05:21:45;100949.81;;;24.69;98.52
27146;BME280;17980;51.744;7.190;2022-08-26T05:24:12;100949.78;;;24.78;98.10
27146;BME280;17980;51.744;7.190;2022-08-26T05:26:39;100955.20;;;25.06;96.95
27146;BME280;17980;51.744;7.190;2022-08-26T05:29:07;100955.69;;;25.03;96.74
27146;BME280;17980;51.744;7.190;2022-08-26T05:31:34;100955.93;;;25.13;95.67
27146;BME280;17980;51.744;7.190;2022-08-26T05:36:40;100956.30;;;25.29;95.00
27146;BME280;17980;51.744;7.190;2022-08-26T05:39:07;100964.31;;;25.13;95.91
27146;BME280;17980;51.744;7.190;2022-08-26T05:44:15;100966.75;;;25.09;96.57
27146;BME280;17980;51.744;7.190;2022-08-26T05:46:44;100959.96;;;24.72;98.50
27146;BME280;17980;51.744;7.190;2022-08-26T05:49:13;100956.52;;;24.80;97.71
27146;BME280;17980;51.744;7.190;2022-08-26T05:51:41;100965.53;;;24.94;97.13
27146;BME280;17980;51.744;7.190;2022-08-26T05:54:11;100966.61;;;24.92;97.49
27146;BME280;17980;51.744;7.190;2022-08-26T05:56:39;100962.81;;;25.08;96.10
27146;BME280;17980;51.744;7.190;2022-08-26T05:59:10;100961.80;;;24.90;96.74
27146;BME280;17980;51.744;7.190;2022-08-26T06:01:35;100970.27;;;25.17;95.38
27146;BME280;17980;51.744;7.190;2022-08-26T06:06:40;100969.67;;;25.26;95.01
27146;BME280;17980;51.744;7.190;2022-08-26T06:09:08;100974.64;;;25.13;95.60
27146;BME280;17980;51.744;7.190;2022-08-26T06:14:15;100971.59;;;25.26;94.71
27146;BME280;17980;51.744;7.190;2022-08-26T06:16:43;100975.53;;;25.37;93.57
27146;BME280;17980;51.744;7.190;2022-08-26T06:19:12;100968.55;;;25.37;93.57
27146;BME280;17980;51.744;7.190;2022-08-26T06:21:46;100972.13;;;25.02;94.83
27146;BME280;17980;51.744;7.190;2022-08-26T06:26:51;100972.64;;;25.22;94.93
27146;BME280;17980;51.744;7.190;2022-08-26T06:31:57;100972.55;;;25.41;93.66
27146;BME280;17980;51.744;7.190;2022-08-26T06:34:25;100969.33;;;25.47;92.86
27146;BME280;17980;51.744;7.190;2022-08-26T06:39:31;100979.63;;;25.70;91.79
27146;BME280;17980;51.744;7.190;2022-08-26T06:41:59;100983.55;;;25.45;91.83
27146;BME280;17980;51.744;7.190;2022-08-26T06:44:27;100987.95;;;25.79;91.12
27146;BME280;17980;51.744;7.190;2022-08-26T06:53:29;100992.73;;;25.81;90.68
27146;BME280;17980;51.744;7.190;2022-08-26T06:55:56;100991.73;;;25.61;91.43
27146;BME280;17980;51.744;7.190;2022-08-26T07:01:03;100992.54;;;25.85;90.31
27146;BME280;17980;51.744;7.190;2022-08-26T07:03:31;100993.16;;;26.25;87.98
27146;BME280;17980;51.744;7.190;2022-08-26T07:06:02;100988.64;;;26.24;88.17
27146;BME280;17980;51.744;7.190;2022-08-26T07:08:29;100992.22;;;26.08;88.40
27146;BME280;17980;51.744;7.190;2022-08-26T07:10:56;100989.87;;;26.17;88.93
27146;BME280;17980;51.744;7.190;2022-08-26T07:13:24;100993.81;;;26.18;88.22
27146;BME280;17980;51.744;7.190;2022-08-26T07:18:28;100994.02;;;26.86;86.02
27146;BME280;17980;51.744;7.190;2022-08-26T07:20:55;100998.16;;;25.73;89.82
27146;BME280;17980;51.744;7.190;2022-08-26T07:23:22;101004.86;;;25.27;92.90
27146;BME280;17980;51.744;7.190;2022-08-26T07:25:50;101004.36;;;24.95;94.49
27146;BME280;17980;51.744;7.190;2022-08-26T07:28:17;101002.31;;;25.02;93.83
27146;BME280;17980;51.744;7.190;2022-08-26T07:33:22;101007.73;;;25.18;92.55
27146;BME280;17980;51.744;7.190;2022-08-26T07:35:50;101005.18;;;25.29;92.79
27146;BME280;17980;51.744;7.190;2022-08-26T07:38:17;101011.59;;;25.38;91.07
27146;BME280;17980;51.744;7.190;2022-08-26T07:40:44;101015.79;;;25.17;93.48
27146;BME280;17980;51.744;7.190;2022-08-26T07:43:13;101012.64;;;25.35;91.86
27146;BME280;17980;51.744;7.190;2022-08-26T07:48:17;101014.92;;;25.61;90.92
27146;BME280;17980;51.744;7.190;2022-08-26T07:50:44;101019.96;;;25.74;91.20
27146;BME280;17980;51.744;7.190;2022-08-26T07:53:12;101022.28;;;25.41;92.03
27146;BME280;17980;51.744;7.190;2022-08-26T07:55:41;101027.02;;;25.41;92.62
27146;BME280;17980;51.744;7.190;2022-08-26T07:58:09;101028.66;;;25.39;93.07
27146;BME280;17980;51.744;7.190;2022-08-26T08:03:13;101032.26;;;25.49;92.11
27146;BME280;17980;51.744;7.190;2022-08-26T08:05:41;101035.02;;;25.37;92.54
27146;BME280;17980;51.744;7.190;2022-08-26T08:08:09;101041.38;;;25.23;93.18
27146;BME280;17980;51.744;7.190;2022-08-26T08:10:39;101037.73;;;25.02;93.60
27146;BME280;17980;51.744;7.190;2022-08-26T08:13:07;101047.23;;;25.13;93.29
27146;BME280;17980;51.744;7.190;2022-08-26T08:15:35;101035.09;;;25.19;92.27
27146;BME280;17980;51.744;7.190;2022-08-26T08:18:03;101036.98;;;25.37;92.10
27146;BME280;17980;51.744;7.190;2022-08-26T08:20:33;101040.36;;;25.39;91.15
27146;BME280;17980;51.744;7.190;2022-08-26T08:23:02;101050.59;;;25.45;90.89
27146;BME280;17980;51.744;7.190;2022-08-26T08:28:07;101053.64;;;24.80;94.43
27146;BME280;17980;51.744;7.190;2022-08-26T08:30:37;101060.72;;;24.55;95.41
27146;BME280;17980;51.744;7.190;2022-08-26T08:33:04;101060.80;;;24.57;95.98
27146;BME280;17980;51.744;7.190;2022-08-26T08:35:32;101063.09;;;24.79;94.06
27146;BME280;17980;51.744;7.190;2022-08-26T08:38:00;101054.88;;;25.05;92.80
27146;BME280;17980;51.744;7.190;2022-08-26T08:40:28;101058.31;;;25.31;90.74
27146;BME280;17980;51.744;7.190;2022-08-26T08:43:00;101056.06;;;25.64;89.34
27146;BME280;17980;51.744;7.190;2022-08-26T08:45:32;101063.70;;;25.68;89.04
27146;BME280;17980;51.744;7.190;2022-08-26T08:48:04;101057.80;;;25.67;88.87
27146;BME280;17980;51.744;7.190;2022-08-26T08:50:34;101057.52;;;25.78;88.54
27146;BME280;17980;51.744;7.190;2022-08-26T08:53:10;101058.45;;;25.95;87.13
27146;BME280;17980;51.744;7.190;2022-08-26T08:55:46;101065.26;;;26.00;87.18
27146;BME280;17980;51.744;7.190;2022-08-26T08:58:16;101062.31;;;25.68;88.72
27146;BME280;17980;51.744;7.190;2022-08-26T09:03:32;101058.97;;;25.57;89.29
27146;BME280;17980;51.744;7.190;2022-08-26T09:08:38;101061.72;;;26.02;87.54
27146;BME280;17980;51.744;7.190;2022-08-26T09:11:06;101062.45;;;26.23;85.74
27146;BME280;17980;51.744;7.190;2022-08-26T09:13:34;101067.77;;;25.87;87.35
27146;BME280;17980;51.744;7.190;2022-08-26T09:21:39;101056.42;;;25.79;88.09
27146;BME280;17980;51.744;7.190;2022-08-26T09:24:10;101062.15;;;26.49;85.02
27146;BME280;17980;51.744;7.190;2022-08-26T09:26:45;101054.59;;;26.75;83.26
27146;BME280;17980;51.744;7.190;2022-08-26T09:29:24;101057.80;;;26.98;82.68
27146;BME280;17980;51.744;7.190;2022-08-26T09:31:53;101058.70;;;27.02;82.70
27146;BME280;17980;51.744;7.190;2022-08-26T09:34:24;101055.00;;;26.98;82.21
27146;BME280;17980;51.744;7.190;2022-08-26T09:36:53;101055.17;;;27.09;82.23
27146;BME280;17980;51.744;7.190;2022-08-26T09:39:27;101058.19;;;27.05;82.21
27146;BME280;17980;51.744;7.190;2022-08-26T09:42:06;101060.55;;;27.61;80.07
27146;BME280;17980;51.744;7.190;2022-08-26T09:44:34;101065.80;;;27.07;81.43
27146;BME280;17980;51.744;7.190;2022-08-26T09:47:04;101063.71;;;27.00;82.43
27146;BME280;17980;51.744;7.190;2022-08-26T09:49:35;101062.34;;;26.85;82.81
27146;BME280;17980;51.744;7.190;2022-08-26T09:52:14;101063.48;;;27.18;81.65
27146;BME280;17980;51.744;7.190;2022-08-26T09:54:44;101052.61;;;26.90;81.96
27146;BME280;17980;51.744;7.190;2022-08-26T09:57:23;101059.58;;;27.05;81.90
27146;BME280;17980;51.744;7.190;2022-08-26T09:59:50;101061.70;;;26.97;82.11
27146;BME280;17980;51.744;7.190;2022-08-26T10:05:09;101062.69;;;27.06;81.61
27146;BME280;17980;51.744;7.190;2022-08-26T10:07:43;101061.14;;;27.12;81.87
27146;BME280;17980;51.744;7.190;2022-08-26T10:10:16;101063.42;;;27.15;81.29
27146;BME280;17980;51.744;7.190;2022-08-26T10:15:34;101059.73;;;27.44;80.06
27146;BME280;17980;51.744;7.190;2022-08-26T10:20:47;101050.48;;;26.95;82.50
27146;BME280;17980;51.744;7.190;2022-08-26T10:23:18;101049.11;;;26.54;83.96
27146;BME280;17980;51.744;7.190;2022-08-26T10:25:47;101054.00;;;26.47;84.43
27146;BME280;17980;51.744;7.190;2022-08-26T10:31:02;101048.18;;;27.09;82.24
27146;BME280;17980;51.744;7.190;2022-08-26T10:36:10;101052.41;;;26.51;83.83
27146;BME280;17980;51.744;7.190;2022-08-26T10:38:40;101039.12;;;26.58;83.79
27146;BME280;17980;51.744;7.190;2022-08-26T10:43:50;101045.47;;;26.68;83.08
27146;BME280;17980;51.744;7.190;2022-08-26T10:46:20;101046.89;;;26.56;84.17
27146;BME280;17980;51.744;7.190;2022-08-26T10:48:52;101037.37;;;27.15;81.36
27146;BME280;17980;51.744;7.190;2022-08-26T10:57:03;101038.37;;;27.23;81.04
27146;BME280;17980;51.744;7.190;2022-08-26T10:59:46;101037.86;;;26.52;83.60
27146;BME280;17980;51.744;7.190;2022-08-26T11:02:18;101045.80;;;26.57;83.30
27146;BME280;17980;51.744;7.190;2022-08-26T11:04:50;101034.62;;;27.01;81.96
27146;BME280;17980;51.744;7.190;2022-08-26T11:13:00;101034.36;;;27.02;80.88
27146;BME280;17980;51.744;7.190;2022-08-26T11:18:44;101039.08;;;27.50;79.02
27146;BME280;17980;51.744;7.190;2022-08-26T11:25:15;101046.52;;;27.78;76.91
27146;BME280;17980;51.744;7.190;2022-08-26T11:27:54;101040.33;;;27.96;75.75
27146;BME280;17980;51.744;7.190;2022-08-26T11:30:44;101039.45;;;26.74;80.53
27146;BME280;17980;51.744;7.190;2022-08-26T11:36:41;101028.73;;;27.51;77.57
27146;BME280;17980;51.744;7.190;2022-08-26T11:39:18;101035.11;;;27.65;77.61
27146;BME280;17980;51.744;7.190;2022-08-26T11:41:47;101031.73;;;27.63;76.75
27146;BME280;17980;51.744;7.190;2022-08-26T11:47:00;101032.44;;;27.73;77.22
27146;BME280;17980;51.744;7.190;2022-08-26T11:49:28;101024.40;;;27.43;78.67
27146;BME280;17980;51.744;7.190;2022-08-26T11:55:02;101024.19;;;27.47;78.92
27146;BME280;17980;51.744;7.190;2022-08-26T12:00:17;101024.61;;;27.39;78.76
27146;BME280;17980;51.744;7.190;2022-08-26T12:02:44;101023.13;;;27.51;78.54
27146;BME280;17980;51.744;7.190;2022-08-26T12:07:51;101021.34;;;28.00;76.35
27146;BME280;17980;51.744;7.190;2022-08-26T12:10:28;101028.74;;;28.56;74.52
27146;BME280;17980;51.744;7.190;2022-08-26T12:12:58;101025.57;;;27.83;76.67
27146;BME280;17980;51.744;7.190;2022-08-26T12:15:27;101029.56;;;27.17;79.21
27146;BME280;17980;51.744;7.190;2022-08-26T12:17:55;101025.19;;;27.07;80.22
27146;BME280;17980;51.744;7.190;2022-08-26T12:20:31;101024.41;;;26.94;81.06
27146;BME280;17980;51.744;7.190;2022-08-26T12:23:44;101018.75;;;27.06;80.72
27146;BME280;17980;51.744;7.190;2022-08-26T12:26:20;101020.31;;;27.34;79.35
27146;BME280;17980;51.744;7.190;2022-08-26T12:28:52;101016.91;;;27.46;78.70
27146;BME280;17980;51.744;7.190;2022-08-26T12:31:24;101018.45;;;27.22;79.73
27146;BME280;17980;51.744;7.190;2022-08-26T12:33:52;101018.67;;;27.52;78.23
27146;BME280;17980;51.744;7.190;2022-08-26T12:36:23;101014.61;;;27.62;77.77
27146;BME280;17980;51.744;7.190;2022-08-26T12:38:50;101017.55;;;27.73;77.69
27146;BME280;17980;51.744;7.190;2022-08-26T12:41:44;101017.45;;;27.85;77.29
27146;BME280;17980;51.744;7.190;2022-08-26T12:44:30;101019.69;;;27.63;78.12
27146;BME280;17980;51.744;7.190;2022-08-26T12:47:09;101016.71;;;27.92;77.14
27146;BME280;17980;51.744;7.190;2022-08-26T12:49:40;101018.06;;;27.50;78.12
27146;BME280;17980;51.744;7.190;2022-08-26T12:54:57;101018.73;;;27.77;76.18
27146;BME280;17980;51.744;7.190;2022-08-26T12:57:27;101021.69;;;27.48;77.96
27146;BME280;17980;51.744;7.190;2022-08-26T13:00:22;101025.29;;;28.02;76.81
27146;BME280;17980;51.744;7.190;2022-08-26T13:02:50;101019.38;;;27.98;76.62
27146;BME280;17980;51.744;7.190;2022-08-26T13:05:22;101015.23;;;27.67;76.51
27146;BME280;17980;51.744;7.190;2022-08-26T13:08:14;101012.11;;;27.63;76.53
27146;BME280;17980;51.744;7.190;2022-08-26T13:10:45;101010.16;;;28.03;75.77
27146;BME280;17980;51.744;7.190;2022-08-26T13:13:15;101008.61;;;28.37;74.14
27146;BME280;17980;51.744;7.190;2022-08-26T13:15:42;101013.30;;;27.90;75.57
27146;BME280;17980;51.744;7.190;2022-08-26T13:18:10;101003.88;;;27.96;75.18
27146;BME280;17980;51.744;7.190;2022-08-26T13:20:42;101000.88;;;28.00;75.46
27146;BME280;17980;51.744;7.190;2022-08-26T13:23:10;100999.80;;;27.64;76.51
27146;BME280;17980;51.744;7.190;2022-08-26T13:25:37;100994.85;;;27.94;75.61
27146;BME280;17980;51.744;7.190;2022-08-26T13:28:04;100998.56;;;28.41;73.85
27146;BME280;17980;51.744;7.190;2022-08-26T13:30:32;100996.83;;;27.54;76.52
27146;BME280;17980;51.744;7.190;2022-08-26T13:35:36;100992.67;;;27.23;78.70
27146;BME280;17980;51.744;7.190;2022-08-26T13:38:04;100997.28;;;27.12;78.95
27146;BME280;17980;51.744;7.190;2022-08-26T13:40:33;100994.69;;;27.08;78.59
27146;BME280;17980;51.744;7.190;2022-08-26T13:45:37;100995.00;;;27.28;77.73
27146;BME280;17980;51.744;7.190;2022-08-26T13:48:06;100999.21;;;27.11;78.95
27146;BME280;17980;51.744;7.190;2022-08-26T13:50:34;100995.69;;;27.02;78.93
27146;BME280;17980;51.744;7.190;2022-08-26T13:53:01;101001.69;;;27.25;78.40
27146;BME280;17980;51.744;7.190;2022-08-26T13:55:30;101000.34;;;27.30;77.83
27146;BME280;17980;51.744;7.190;2022-08-26T13:57:58;101004.77;;;27.40;76.95
27146;BME280;17980;51.744;7.190;2022-08-26T14:00:28;101008.05;;;27.35;77.28
27146;BME280;17980;51.744;7.190;2022-08-26T14:02:57;101007.55;;;27.57;76.62
27146;BME280;17980;51.744;7.190;2022-08-26T14:05:24;101008.06;;;27.37;76.48
27146;BME280;17980;51.744;7.190;2022-08-26T14:07:52;101010.58;;;27.05;77.71
27146;BME280;17980;51.744;7.190;2022-08-26T14:10:21;101008.05;;;27.35;76.75
27146;BME280;17980;51.744;7.190;2022-08-26T14:12:50;101010.16;;;27.13;77.73
27146;BME280;17980;51.744;7.190;2022-08-26T14:15:18;101010.82;;;27.18;77.31
27146;BME280;17980;51.744;7.190;2022-08-26T14:20:25;101007.88;;;27.10;77.59
27146;BME280;17980;51.744;7.190;2022-08-26T14:22:53;101015.03;;;27.20;76.95
27146;BME280;17980;51.744;7.190;2022-08-26T14:25:21;101015.09;;;27.23;76.90
27146;BME280;17980;51.744;7.190;2022-08-26T14:27:49;101019.78;;;26.86;78.29
27146;BME280;17980;51.744;7.190;2022-08-26T14:30:19;101019.83;;;26.88;78.69
27146;BME280;17980;51.744;7.190;2022-08-26T14:32:55;101012.83;;;26.88;78.48
27146;BME280;17980;51.744;7.190;2022-08-26T14:35:22;101018.52;;;26.64;79.53
27146;BME280;17980;51.744;7.190;2022-08-26T14:37:50;101017.91;;;26.48;80.06
27146;BME280;17980;51.744;7.190;2022-08-26T14:40:21;101016.51;;;26.48;79.80
27146;BME280;17980;51.744;7.190;2022-08-26T14:42:52;101022.85;;;26.70;79.08
27146;BME280;17980;51.744;7.190;2022-08-26T14:45:22;101022.48;;;27.29;77.04
27146;BME280;17980;51.744;7.190;2022-08-26T14:47:51;101025.96;;;26.59;78.23
27146;BME280;17980;51.744;7.190;2022-08-26T14:50:21;101043.31;;;26.58;78.86
27146;BME280;17980;51.744;7.190;2022-08-26T14:52:50;101030.48;;;26.74;78.65
27146;BME280;17980;51.744;7.190;2022-08-26T14:55:37;101037.05;;;26.54;78.84
27146;BME280;17980;51.744;7.190;2022-08-26T15:00:43;101021.73;;;26.85;78.41
27146;BME280;17980;51.744;7.190;2022-08-26T15:03:10;101017.18;;;26.82;78.33
27146;BME280;17980;51.744;7.190;2022-08-26T15:05:39;101016.29;;;26.78;78.32
27146;BME280;17980;51.744;7.190;2022-08-26T15:08:09;101018.85;;;26.54;79.51
27146;BME280;17980;51.744;7.190;2022-08-26T15:10:36;101018.38;;;26.02;82.13
27146;BME280;17980;51.744;7.190;2022-08-26T15:13:04;101017.17;;;25.86;82.72
27146;BME280;17980;51.744;7.190;2022-08-26T15:15:31;101017.83;;;25.90;82.79
27146;BME280;17980;51.744;7.190;2022-08-26T15:17:58;101024.56;;;26.04;82.12
27146;BME280;17980;51.744;7.190;2022-08-26T15:20:26;101020.68;;;25.81;83.42
27146;BME280;17980;51.744;7.190;2022-08-26T15:22:53;101017.63;;;26.06;82.56
27146;BME280;17980;51.744;7.190;2022-08-26T15:25:20;101022.12;;;25.57;83.96
27146;BME280;17980;51.744;7.190;2022-08-26T15:27:48;101022.48;;;25.49;84.79
27146;BME280;17980;51.744;7.190;2022-08-26T15:30:16;101017.66;;;25.47;85.07
27146;BME280;17980;51.744;7.190;2022-08-26T15:32:44;101020.28;;;25.51;85.25
27146;BME280;17980;51.744;7.190;2022-08-26T15:37:47;101019.78;;;25.54;85.38
27146;BME280;17980;51.744;7.190;2022-08-26T15:40:14;101017.55;;;25.77;84.07
27146;BME280;17980;51.744;7.190;2022-08-26T15:42:41;101014.27;;;25.57;84.78
27146;BME280;17980;51.744;7.190;2022-08-26T15:45:11;101007.23;;;25.21;86.41
27146;BME280;17980;51.744;7.190;2022-08-26T15:47:38;101006.22;;;25.25;86.33
27146;BME280;17980;51.744;7.190;2022-08-26T15:50:10;101005.77;;;25.07;86.60
27146;BME280;17980;51.744;7.190;2022-08-26T15:52:39;101006.13;;;25.55;84.75
27146;BME280;17980;51.744;7.190;2022-08-26T15:55:08;101008.00;;;25.64;84.50
27146;BME280;17980;51.744;7.190;2022-08-26T15:57:38;100999.16;;;25.43;85.12
27146;BME280;17980;51.744;7.190;2022-08-26T16:00:08;100994.03;;;25.64;84.13
27146;BME280;17980;51.744;7.190;2022-08-26T16:02:36;101005.98;;;25.74;84.10
27146;BME280;17980;51.744;7.190;2022-08-26T16:07:41;100998.94;;;25.83;83.21
27146;BME280;17980;51.744;7.190;2022-08-26T16:10:09;101010.56;;;25.54;84.44
27146;BME280;17980;51.744;7.190;2022-08-26T16:12:37;101001.47;;;25.35;85.16
27146;BME280;17980;51.744;7.190;2022-08-26T16:15:06;101008.87;;;25.65;84.13
27146;BME280;17980;51.744;7.190;2022-08-26T16:17:33;101011.10;;;25.41;84.59